^^
Grace C. Lehan Memorial Weather Station Historical Data
Daily Summary for May 20, 2022 Units:  Both    English   Metric
Daily Weekly Monthly Yearly
  High: Low: Average:
Temperature: 76.5 °F /  24.7 °C 51.2 °F /  10.7 °C 62.4 °F /  16.9 °C
Dew Point: 64.4 °F /  18 °C 49.8 °F /  9.9 °C 57.7 °F /  14.3 °C
Humidity: 96.9% 60.2% 86%
Wind Speed: 1.7mph /  2.7km/h - 0.1mph /  0.2km/h
Wind Gust: 11mph /  17.7km/h - -
Wind- - SSE
Pressure: 29.98 in /  1015.1 hPa 29.81 in /  1009.4 hPa -
Precipitation: 0.05 in /  1.27 mm    
 
 
Tabular Data for May 20, 2022
Time Temperature Dew Point Pressure Wind Wind Speed Wind Gust Humidity Rainfall Rate (Hourly) solar
00:09 53.6 °F /  12 °C 51.6 °F /  10.9 °C 29.81in /  1009.4hPa Calm     93% 0.00in /  0mm 0 W/m2
00:14 53.5 °F /  11.9 °C 51.6 °F /  10.9 °C 29.82in /  1009.7hPa Calm     93.2% 0.00in /  0mm 0 W/m2
00:19 53.4 °F /  11.9 °C 51.7 °F /  10.9 °C 29.82in /  1009.7hPa Calm     93.9% 0.00in /  0mm 0 W/m2
00:24 53.3 °F /  11.8 °C 51.4 °F /  10.8 °C 29.82in /  1009.7hPa Calm     93.3% 0.00in /  0mm 0 W/m2
00:29 53.2 °F /  11.8 °C 51.2 °F /  10.7 °C 29.82in /  1009.7hPa Calm     93% 0.00in /  0mm 0 W/m2
00:34 53 °F /  11.7 °C 51.1 °F /  10.6 °C 29.82in /  1009.7hPa Calm     93% 0.00in /  0mm 0 W/m2
00:39 52.9 °F /  11.6 °C 51.1 °F /  10.6 °C 29.82in /  1009.7hPa Calm     93.6% 0.00in /  0mm 0 W/m2
00:44 52.8 °F /  11.6 °C 51.1 °F /  10.6 °C 29.82in /  1009.7hPa Calm     94% 0.00in /  0mm 0 W/m2
00:49 52.7 °F /  11.5 °C 51 °F /  10.6 °C 29.82in /  1009.7hPa Calm     93.9% 0.00in /  0mm 0 W/m2
00:54 52.7 °F /  11.5 °C 51 °F /  10.6 °C 29.82in /  1009.7hPa Calm     94% 0.00in /  0mm 0 W/m2
00:59 52.7 °F /  11.5 °C 51 °F /  10.6 °C 29.83in /  1010hPa Calm     94% 0.00in /  0mm 0 W/m2
01:04 52.7 °F /  11.5 °C 51 °F /  10.6 °C 29.83in /  1010hPa Calm     94% 0.00in /  0mm 0 W/m2
01:09 52.7 °F /  11.5 °C 51 °F /  10.6 °C 29.84in /  1010.4hPa Calm     94% 0.00in /  0mm 0 W/m2
01:14 52.7 °F /  11.5 °C 51 °F /  10.6 °C 29.84in /  1010.4hPa Calm     94% 0.00in /  0mm 0 W/m2
01:19 52.7 °F /  11.5 °C 51.1 °F /  10.6 °C 29.84in /  1010.4hPa Calm     94% 0.00in /  0mm 0 W/m2
01:24 52.8 °F /  11.6 °C 51.1 °F /  10.6 °C 29.83in /  1010hPa Calm     94% 0.00in /  0mm 0 W/m2
01:29 52.8 °F /  11.6 °C 51.1 °F /  10.6 °C 29.83in /  1010hPa Calm     94% 0.00in /  0mm 0 W/m2
01:34 52.8 °F /  11.6 °C 51.1 °F /  10.6 °C 29.83in /  1010hPa Calm     94% 0.00in /  0mm 0 W/m2
01:39 52.8 °F /  11.6 °C 51.1 °F /  10.6 °C 29.83in /  1010hPa Calm     94% 0.00in /  0mm 0 W/m2
01:44 52.7 °F /  11.5 °C 51.1 °F /  10.6 °C 29.83in /  1010hPa Calm     94% 0.00in /  0mm 0 W/m2
01:49 52.7 °F /  11.5 °C 51 °F /  10.6 °C 29.83in /  1010hPa Calm     94% 0.00in /  0mm 0 W/m2
01:54 52.7 °F /  11.5 °C 51.1 °F /  10.6 °C 29.83in /  1010hPa Calm     94.4% 0.00in /  0mm 0 W/m2
01:59 52.7 °F /  11.5 °C 51.2 °F /  10.7 °C 29.83in /  1010hPa Calm     94.5% 0.00in /  0mm 0 W/m2
02:04 52.8 °F /  11.6 °C 51.4 °F /  10.8 °C 29.83in /  1010hPa Calm     95% 0.00in /  0mm 0 W/m2
02:09 52.8 °F /  11.6 °C 51.4 °F /  10.8 °C 29.83in /  1010hPa Calm     95% 0.00in /  0mm 0 W/m2
02:14 52.8 °F /  11.6 °C 51.4 °F /  10.8 °C 29.83in /  1010hPa Calm     95% 0.00in /  0mm 0 W/m2
02:19 52.7 °F /  11.5 °C 51.3 °F /  10.7 °C 29.84in /  1010.4hPa Calm     95% 0.00in /  0mm 0 W/m2
02:24 52.7 °F /  11.5 °C 51.3 °F /  10.7 °C 29.84in /  1010.4hPa Calm     95% 0.00in /  0mm 0 W/m2
02:29 52.7 °F /  11.5 °C 51.3 °F /  10.7 °C 29.84in /  1010.4hPa Calm     95% 0.00in /  0mm 0 W/m2
02:34 52.7 °F /  11.5 °C 51.3 °F /  10.7 °C 29.84in /  1010.4hPa Calm     95% 0.00in /  0mm 0 W/m2
02:39 52.7 °F /  11.5 °C 51.3 °F /  10.7 °C 29.84in /  1010.4hPa Calm     95% 0.00in /  0mm 0 W/m2
02:44 52.7 °F /  11.5 °C 51.3 °F /  10.7 °C 29.84in /  1010.4hPa Calm     95% 0.00in /  0mm 0 W/m2
02:49 52.7 °F /  11.5 °C 51.3 °F /  10.7 °C 29.84in /  1010.4hPa Calm     95% 0.00in /  0mm 0 W/m2
02:54 52.7 °F /  11.5 °C 51.3 °F /  10.7 °C 29.84in /  1010.4hPa Calm     95% 0.00in /  0mm 0 W/m2
02:59 52.7 °F /  11.5 °C 51.3 °F /  10.7 °C 29.84in /  1010.4hPa Calm     95% 0.00in /  0mm 0 W/m2
03:04 52.6 °F /  11.4 °C 51.2 °F /  10.7 °C 29.84in /  1010.4hPa Calm     95% 0.00in /  0mm 0 W/m2
03:09 52.6 °F /  11.4 °C 51.2 °F /  10.7 °C 29.84in /  1010.4hPa Calm     95% 0.00in /  0mm 0 W/m2
03:13 52.6 °F /  11.4 °C 51.2 °F /  10.7 °C 29.84in /  1010.4hPa Calm     95% 0.00in /  0mm 0 W/m2
03:19 52.6 °F /  11.4 °C 51.2 °F /  10.7 °C 29.84in /  1010.4hPa Calm     95% 0.00in /  0mm 0 W/m2
03:24 52.6 °F /  11.4 °C 51.2 °F /  10.7 °C 29.84in /  1010.4hPa Calm     95% 0.00in /  0mm 0 W/m2
03:29 52.6 °F /  11.4 °C 51.2 °F /  10.7 °C 29.84in /  1010.4hPa Calm     95% 0.00in /  0mm 0 W/m2
03:34 52.5 °F /  11.4 °C 51.1 °F /  10.6 °C 29.84in /  1010.4hPa Calm     95% 0.00in /  0mm 0 W/m2
03:39 52.3 °F /  11.3 °C 50.9 °F /  10.5 °C 29.84in /  1010.4hPa Calm     95% 0.00in /  0mm 0 W/m2
03:44 52.2 °F /  11.2 °C 50.8 °F /  10.4 °C 29.84in /  1010.4hPa Calm     95% 0.00in /  0mm 0 W/m2
03:49 52.1 °F /  11.2 °C 50.7 °F /  10.4 °C 29.84in /  1010.4hPa Calm     95% 0.00in /  0mm 0 W/m2
03:54 52 °F /  11.1 °C 50.6 °F /  10.3 °C 29.84in /  1010.4hPa Calm     95% 0.00in /  0mm 0 W/m2
03:59 51.9 °F /  11.1 °C 50.5 °F /  10.3 °C 29.84in /  1010.4hPa Calm     95% 0.00in /  0mm 0 W/m2
04:00 51.9 °F /  11.1 °C 50.5 °F /  10.3 °C 29.84in /  1010.4hPa Calm     95% 0.00in /  0mm 0 W/m2
04:09 51.9 °F /  11.1 °C 50.5 °F /  10.3 °C 29.83in /  1010hPa Calm     95% 0.00in /  0mm 0 W/m2
04:14 51.9 °F /  11.1 °C 50.5 °F /  10.3 °C 29.84in /  1010.4hPa Calm   1mph /  1.6km/h 95% 0.01in /  0.25mm 0 W/m2
04:19 51.9 °F /  11.1 °C 50.5 °F /  10.3 °C 29.84in /  1010.4hPa WSW 0.1mph /  0.2km/h 2mph /  3.2km/h 95% 0.01in /  0.25mm 0 W/m2
04:24 51.9 °F /  11.1 °C 50.5 °F /  10.3 °C 29.85in /  1010.7hPa WSW 0.1mph /  0.2km/h 3mph /  4.8km/h 95% 0.01in /  0.25mm 0 W/m2
04:29 51.9 °F /  11.1 °C 50.5 °F /  10.3 °C 29.85in /  1010.7hPa WSW 0.4mph /  0.6km/h 5mph /  8km/h 95% 0.01in /  0.25mm 0 W/m2
04:34 51.9 °F /  11.1 °C 50.5 °F /  10.3 °C 29.85in /  1010.7hPa WSW 0.1mph /  0.2km/h 5mph /  8km/h 95% 0.01in /  0.25mm 0 W/m2
04:39 51.9 °F /  11.1 °C 50.5 °F /  10.3 °C 29.85in /  1010.7hPa Calm   2mph /  3.2km/h 95% 0.01in /  0.25mm 0 W/m2
04:44 51.9 °F /  11.1 °C 50.5 °F /  10.3 °C 29.85in /  1010.7hPa Calm   2mph /  3.2km/h 95% 0.01in /  0.25mm 0 W/m2
04:49 51.8 °F /  11 °C 50.4 °F /  10.2 °C 29.86in /  1011.1hPa Calm   2mph /  3.2km/h 95% 0.01in /  0.25mm 0 W/m2
04:54 51.8 °F /  11 °C 50.4 °F /  10.2 °C 29.86in /  1011.1hPa Calm   2mph /  3.2km/h 95% 0.01in /  0.25mm 0 W/m2
04:59 51.8 °F /  11 °C 50.4 °F /  10.2 °C 29.86in /  1011.1hPa Calm   2mph /  3.2km/h 95% 0.01in /  0.25mm 0 W/m2
05:03 51.7 °F /  10.9 °C 50.3 °F /  10.2 °C 29.86in /  1011.1hPa Calm   2mph /  3.2km/h 95% 0.01in /  0.25mm 0 W/m2
05:09 51.7 °F /  10.9 °C 50.3 °F /  10.2 °C 29.87in /  1011.4hPa Calm     95% 0.00in /  0mm 0 W/m2
05:14 51.6 °F /  10.9 °C 50.2 °F /  10.1 °C 29.87in /  1011.4hPa Calm     95% 0.00in /  0mm 0 W/m2
05:19 51.5 °F /  10.8 °C 50.1 °F /  10.1 °C 29.87in /  1011.4hPa Calm     95% 0.00in /  0mm 0 W/m2
05:24 51.5 °F /  10.8 °C 50.1 °F /  10.1 °C 29.87in /  1011.4hPa Calm     95% 0.00in /  0mm 0 W/m2
05:29 51.4 °F /  10.8 °C 50 °F /  10 °C 29.87in /  1011.4hPa Calm     95% 0.00in /  0mm 0 W/m2
05:34 51.3 °F /  10.7 °C 49.9 °F /  9.9 °C 29.87in /  1011.4hPa Calm     95% 0.00in /  0mm 5 W/m2
05:39 51.2 °F /  10.7 °C 49.8 °F /  9.9 °C 29.88in /  1011.7hPa Calm     95% 0.00in /  0mm 9 W/m2
05:44 51.2 °F /  10.7 °C 49.8 °F /  9.9 °C 29.88in /  1011.7hPa Calm     95% 0.00in /  0mm 12 W/m2
05:49 51.2 °F /  10.7 °C 49.8 °F /  9.9 °C 29.88in /  1011.7hPa Calm     95% 0.00in /  0mm 16 W/m2
05:54 51.2 °F /  10.7 °C 50 °F /  10 °C 29.88in /  1011.7hPa Calm     95.5% 0.00in /  0mm 16 W/m2
05:59 51.3 °F /  10.7 °C 50.2 °F /  10.1 °C 29.89in /  1012.1hPa Calm     96% 0.00in /  0mm 18 W/m2
06:04 51.4 °F /  10.8 °C 50.3 °F /  10.2 °C 29.89in /  1012.1hPa Calm     96% 0.00in /  0mm 18 W/m2
06:09 51.5 °F /  10.8 °C 50.4 °F /  10.2 °C 29.89in /  1012.1hPa Calm     96% 0.00in /  0mm 32 W/m2
06:13 51.6 °F /  10.9 °C 50.5 °F /  10.3 °C 29.90in /  1012.4hPa Calm     96% 0.00in /  0mm 32 W/m2
06:19 51.7 °F /  10.9 °C 50.6 °F /  10.3 °C 29.90in /  1012.4hPa Calm     96% 0.00in /  0mm 35 W/m2
06:24 51.9 °F /  11.1 °C 50.8 °F /  10.4 °C 29.90in /  1012.4hPa Calm     96% 0.00in /  0mm 47 W/m2
06:29 51.9 °F /  11.1 °C 50.8 °F /  10.4 °C 29.91in /  1012.8hPa Calm     96% 0.00in /  0mm 54 W/m2
06:34 52 °F /  11.1 °C 50.9 °F /  10.5 °C 29.92in /  1013.1hPa Calm     96% 0.00in /  0mm 81 W/m2
06:39 52.3 °F /  11.3 °C 51.2 °F /  10.7 °C 29.92in /  1013.1hPa Calm     96% 0.00in /  0mm 113 W/m2
06:44 52.5 °F /  11.4 °C 51.4 °F /  10.8 °C 29.92in /  1013.1hPa Calm     96% 0.00in /  0mm 113 W/m2
06:49 52.7 °F /  11.5 °C 51.6 °F /  10.9 °C 29.92in /  1013.1hPa Calm     96% 0.00in /  0mm 77 W/m2
06:54 52.9 °F /  11.6 °C 51.7 °F /  10.9 °C 29.92in /  1013.1hPa Calm     96% 0.00in /  0mm 81 W/m2
06:59 53 °F /  11.7 °C 51.9 °F /  11.1 °C 29.92in /  1013.1hPa Calm     96% 0.00in /  0mm 88 W/m2
07:04 53.1 °F /  11.7 °C 52 °F /  11.1 °C 29.92in /  1013.1hPa Calm     96% 0.00in /  0mm 70 W/m2
07:09 53.2 °F /  11.8 °C 52.1 °F /  11.2 °C 29.92in /  1013.1hPa Calm     96% 0.00in /  0mm 58 W/m2
07:14 53.3 °F /  11.8 °C 52.2 °F /  11.2 °C 29.93in /  1013.4hPa Calm     96% 0.00in /  0mm 107 W/m2
07:19 53.4 °F /  11.9 °C 52.2 °F /  11.2 °C 29.93in /  1013.4hPa Calm     96% 0.00in /  0mm 137 W/m2
07:24 53.6 °F /  12 °C 52.5 °F /  11.4 °C 29.93in /  1013.4hPa Calm     96% 0.00in /  0mm 153 W/m2
07:29 53.9 °F /  12.2 °C 52.8 °F /  11.6 °C 29.93in /  1013.4hPa Calm     96% 0.00in /  0mm 77 W/m2
07:34 53.9 °F /  12.2 °C 52.8 °F /  11.6 °C 29.93in /  1013.4hPa Calm     96% 0.00in /  0mm 105 W/m2
07:39 53.8 °F /  12.1 °C 52.7 °F /  11.5 °C 29.93in /  1013.4hPa Calm     96% 0.00in /  0mm 172 W/m2
07:44 54 °F /  12.2 °C 52.9 °F /  11.6 °C 29.94in /  1013.8hPa Calm     96% 0.00in /  0mm 172 W/m2
07:49 54.2 °F /  12.3 °C 53.1 °F /  11.7 °C 29.94in /  1013.8hPa Calm     96% 0.00in /  0mm 116 W/m2
07:54 54.4 °F /  12.4 °C 53.3 °F /  11.8 °C 29.95in /  1014.1hPa Calm     96% 0.00in /  0mm 62 W/m2
07:59 54.4 °F /  12.4 °C 53.3 °F /  11.8 °C 29.95in /  1014.1hPa Calm     96% 0.00in /  0mm 60 W/m2
08:00 54.4 °F /  12.4 °C 53.3 °F /  11.8 °C 29.95in /  1014.1hPa Calm     96% 0.00in /  0mm 54 W/m2
08:09 54.5 °F /  12.5 °C 53.4 °F /  11.9 °C 29.95in /  1014.1hPa Calm     96% 0.00in /  0mm 83 W/m2
08:14 54.5 °F /  12.5 °C 53.4 °F /  11.9 °C 29.95in /  1014.1hPa Calm     96% 0.00in /  0mm 81 W/m2
08:19 54.5 °F /  12.5 °C 53.4 °F /  11.9 °C 29.95in /  1014.1hPa Calm     96% 0.00in /  0mm 65 W/m2
08:24 54.6 °F /  12.6 °C 53.5 °F /  11.9 °C 29.96in /  1014.4hPa Calm     96% 0.00in /  0mm 79 W/m2
08:28 54.8 °F /  12.7 °C 53.7 °F /  12.1 °C 29.95in /  1014.1hPa Calm     96% 0.00in /  0mm 81 W/m2
08:34 54.8 °F /  12.7 °C 53.6 °F /  12 °C 29.96in /  1014.4hPa Calm     96% 0.00in /  0mm 104 W/m2
08:35 54.8 °F /  12.7 °C 53.7 °F /  12.1 °C 29.96in /  1014.4hPa Calm     96% 0.00in /  0mm 104 W/m2
08:44 55 °F /  12.8 °C 53.8 °F /  12.1 °C 29.97in /  1014.8hPa Calm     96% 0.00in /  0mm 146 W/m2
08:49 55.1 °F /  12.8 °C 54 °F /  12.2 °C 29.97in /  1014.8hPa Calm     96% 0.00in /  0mm 141 W/m2
08:54 55.4 °F /  13 °C 54.3 °F /  12.4 °C 29.97in /  1014.8hPa Calm     96% 0.00in /  0mm 156 W/m2
08:59 55.6 °F /  13.1 °C 54.5 °F /  12.5 °C 29.97in /  1014.8hPa Calm     96% 0.00in /  0mm 211 W/m2
09:04 55.8 °F /  13.2 °C 54.7 °F /  12.6 °C 29.97in /  1014.8hPa Calm     96% 0.00in /  0mm 267 W/m2
09:09 56.2 °F /  13.4 °C 55 °F /  12.8 °C 29.96in /  1014.4hPa Calm     96% 0.00in /  0mm 341 W/m2
09:14 56.5 °F /  13.6 °C 55.3 °F /  12.9 °C 29.96in /  1014.4hPa Calm     96% 0.00in /  0mm 387 W/m2
09:19 57 °F /  13.9 °C 56 °F /  13.3 °C 29.96in /  1014.4hPa Calm     96.5% 0.00in /  0mm 452 W/m2
09:24 57.5 °F /  14.2 °C 56.6 °F /  13.7 °C 29.97in /  1014.8hPa Calm     96.9% 0.00in /  0mm 554 W/m2
09:29 57.9 °F /  14.4 °C 56.9 °F /  13.8 °C 29.97in /  1014.8hPa Calm     96.6% 0.00in /  0mm 847 W/m2
09:34 58.6 °F /  14.8 °C 57.7 °F /  14.3 °C 29.97in /  1014.8hPa Calm     96.9% 0.00in /  0mm 737 W/m2
09:39 59.1 °F /  15.1 °C 58 °F /  14.4 °C 29.96in /  1014.4hPa Calm     96.2% 0.00in /  0mm 693 W/m2
09:44 59.9 °F /  15.5 °C 58.7 °F /  14.8 °C 29.96in /  1014.4hPa Calm   1mph /  1.6km/h 96% 0.00in /  0mm 677 W/m2
09:49 61.2 °F /  16.2 °C 60 °F /  15.6 °C 29.97in /  1014.8hPa Calm   1mph /  1.6km/h 96% 0.00in /  0mm 735 W/m2
09:54 62.2 °F /  16.8 °C 60.6 °F /  15.9 °C 29.97in /  1014.8hPa Calm   1mph /  1.6km/h 94.6% 0.00in /  0mm 881 W/m2
09:59 63.3 °F /  17.4 °C 61 °F /  16.1 °C 29.97in /  1014.8hPa Calm   1mph /  1.6km/h 92.1% 0.00in /  0mm 881 W/m2
10:04 63.8 °F /  17.7 °C 60.3 °F /  15.7 °C 29.97in /  1014.8hPa Calm   1mph /  1.6km/h 88.4% 0.00in /  0mm 548 W/m2
10:09 64.1 °F /  17.8 °C 60.2 °F /  15.7 °C 29.97in /  1014.8hPa Calm     87.2% 0.00in /  0mm 548 W/m2
10:14 64.4 °F /  18 °C 60.2 °F /  15.7 °C 29.97in /  1014.8hPa Calm   1mph /  1.6km/h 86% 0.00in /  0mm 705 W/m2
10:19 65.1 °F /  18.4 °C 60.8 °F /  16 °C 29.97in /  1014.8hPa Calm   1mph /  1.6km/h 85.9% 0.00in /  0mm 802 W/m2
10:24 65.7 °F /  18.7 °C 60.6 °F /  15.9 °C 29.97in /  1014.8hPa Calm   1mph /  1.6km/h 83.6% 0.00in /  0mm 773 W/m2
10:29 65.9 °F /  18.8 °C 60.3 °F /  15.7 °C 29.97in /  1014.8hPa Calm   1mph /  1.6km/h 82% 0.00in /  0mm 687 W/m2
10:34 66 °F /  18.9 °C 60.2 °F /  15.7 °C 29.98in /  1015.1hPa Calm   1mph /  1.6km/h 81.5% 0.00in /  0mm 824 W/m2
10:36 66.1 °F /  18.9 °C 60.2 °F /  15.7 °C 29.98in /  1015.1hPa Calm     81.4% 0.00in /  0mm 809 W/m2
11:00 67.1 °F /  19.5 °C 60.7 °F /  15.9 °C 29.98in /  1015.1hPa Calm   4mph /  6.4km/h 80% 0.00in /  0mm 787 W/m2
11:30 70.2 °F /  21.2 °C 63 °F /  17.2 °C 29.97in /  1014.8hPa Calm   5mph /  8km/h 78% 0.00in /  0mm 826 W/m2
12:04 72.8 °F /  22.7 °C 62.8 °F /  17.1 °C 29.96in /  1014.4hPa Calm     71% 0.00in /  0mm 930 W/m2
12:09 72.8 °F /  22.7 °C 63.2 °F /  17.3 °C 29.96in /  1014.4hPa Calm     71.9% 0.00in /  0mm 926 W/m2
12:14 73.3 °F /  22.9 °C 64.4 °F /  18 °C 29.96in /  1014.4hPa SW 0.3mph /  0.5km/h 6mph /  9.7km/h 73.6% 0.00in /  0mm 884 W/m2
12:19 73.6 °F /  23.1 °C 63.8 °F /  17.7 °C 29.96in /  1014.4hPa SW 0.2mph /  0.3km/h 6mph /  9.7km/h 71.5% 0.00in /  0mm 886 W/m2
12:24 73.9 °F /  23.3 °C 63.7 °F /  17.6 °C 29.95in /  1014.1hPa SW 0.3mph /  0.5km/h 6mph /  9.7km/h 70.5% 0.00in /  0mm 928 W/m2
12:29 74.2 °F /  23.4 °C 64.4 °F /  18 °C 29.95in /  1014.1hPa Calm   6mph /  9.7km/h 71.4% 0.00in /  0mm 933 W/m2
12:34 74.6 °F /  23.7 °C 64.3 °F /  17.9 °C 29.96in /  1014.4hPa Calm   6mph /  9.7km/h 70.2% 0.00in /  0mm 991 W/m2
12:39 74.7 °F /  23.7 °C 63.3 °F /  17.4 °C 29.96in /  1014.4hPa SSW 0.1mph /  0.2km/h 2mph /  3.2km/h 67.6% 0.00in /  0mm 949 W/m2
12:44 74.7 °F /  23.7 °C 63.1 °F /  17.3 °C 29.96in /  1014.4hPa SSW 0.5mph /  0.8km/h 4mph /  6.4km/h 67% 0.00in /  0mm 993 W/m2
12:49 74.9 °F /  23.8 °C 63.1 °F /  17.3 °C 29.95in /  1014.1hPa ESE 0.5mph /  0.8km/h 4mph /  6.4km/h 66.7% 0.00in /  0mm 1014 W/m2
12:54 75.1 °F /  23.9 °C 63.4 °F /  17.4 °C 29.95in /  1014.1hPa ESE 0.9mph /  1.4km/h 8mph /  12.9km/h 67% 0.00in /  0mm 988 W/m2
12:59 75.3 °F /  24.1 °C 63.8 °F /  17.7 °C 29.95in /  1014.1hPa ESE 0.1mph /  0.2km/h 8mph /  12.9km/h 67.4% 0.00in /  0mm 1053 W/m2
13:04 75.7 °F /  24.3 °C 64.3 °F /  17.9 °C 29.95in /  1014.1hPa ESE 0.1mph /  0.2km/h 8mph /  12.9km/h 67.7% 0.00in /  0mm 1053 W/m2
13:09 76.1 °F /  24.5 °C 63.6 °F /  17.6 °C 29.95in /  1014.1hPa South 0.7mph /  1.1km/h 5mph /  8km/h 65.1% 0.00in /  0mm 1042 W/m2
13:14 76.5 °F /  24.7 °C 63.6 °F /  17.6 °C 29.95in /  1014.1hPa SSW 0.6mph /  1km/h 5mph /  8km/h 64.4% 0.00in /  0mm 1053 W/m2
13:19 76.5 °F /  24.7 °C 62.3 °F /  16.8 °C 29.95in /  1014.1hPa South 0.3mph /  0.5km/h 5mph /  8km/h 61.5% 0.00in /  0mm 526 W/m2
13:24 75.9 °F /  24.4 °C 62 °F /  16.7 °C 29.95in /  1014.1hPa South 0.2mph /  0.3km/h 5mph /  8km/h 62% 0.00in /  0mm 346 W/m2
13:29 75.6 °F /  24.2 °C 61.9 °F /  16.6 °C 29.95in /  1014.1hPa South 0.2mph /  0.3km/h 5mph /  8km/h 62.5% 0.00in /  0mm 330 W/m2
13:34 75.3 °F /  24.1 °C 62.8 °F /  17.1 °C 29.95in /  1014.1hPa Calm   5mph /  8km/h 65% 0.00in /  0mm 336 W/m2
13:39 75.3 °F /  24.1 °C 63.3 °F /  17.4 °C 29.95in /  1014.1hPa Calm   2mph /  3.2km/h 66.4% 0.00in /  0mm 341 W/m2
13:44 75.2 °F /  24 °C 62.3 °F /  16.8 °C 29.96in /  1014.4hPa SSW 0.5mph /  0.8km/h 5mph /  8km/h 64.3% 0.00in /  0mm 350 W/m2
13:49 75.2 °F /  24 °C 61.8 °F /  16.6 °C 29.96in /  1014.4hPa SW 0.3mph /  0.5km/h 5mph /  8km/h 63.1% 0.00in /  0mm 325 W/m2
13:54 75 °F /  23.9 °C 60.4 °F /  15.8 °C 29.96in /  1014.4hPa South 1mph /  1.6km/h 6mph /  9.7km/h 60.6% 0.00in /  0mm 246 W/m2
13:59 74.5 °F /  23.6 °C 59.8 °F /  15.4 °C 29.96in /  1014.4hPa South 1.1mph /  1.8km/h 7mph /  11.3km/h 60.2% 0.00in /  0mm 202 W/m2
14:04 74.1 °F /  23.4 °C 59.6 °F /  15.3 °C 29.96in /  1014.4hPa SSE 0.6mph /  1km/h 7mph /  11.3km/h 60.6% 0.00in /  0mm 151 W/m2
14:09 73.6 °F /  23.1 °C 59.4 °F /  15.2 °C 29.95in /  1014.1hPa South 0.5mph /  0.8km/h 6mph /  9.7km/h 61.1% 0.00in /  0mm 120 W/m2
14:14 73.3 °F /  22.9 °C 59.8 °F /  15.4 °C 29.95in /  1014.1hPa South 0.2mph /  0.3km/h 6mph /  9.7km/h 62.7% 0.00in /  0mm 128 W/m2
14:19 72.9 °F /  22.7 °C 60 °F /  15.6 °C 29.95in /  1014.1hPa South 0.5mph /  0.8km/h 6mph /  9.7km/h 63.8% 0.00in /  0mm 192 W/m2
14:24 72.6 °F /  22.6 °C 59.8 °F /  15.4 °C 29.95in /  1014.1hPa South 1.6mph /  2.6km/h 7mph /  11.3km/h 64.1% 0.00in /  0mm 334 W/m2
14:29 72.5 °F /  22.5 °C 60.3 °F /  15.7 °C 29.95in /  1014.1hPa South 1.7mph /  2.7km/h 7mph /  11.3km/h 65.3% 0.00in /  0mm 355 W/m2
14:34 72.6 °F /  22.6 °C 60.7 °F /  15.9 °C 29.94in /  1013.8hPa South 1mph /  1.6km/h 7mph /  11.3km/h 66.3% 0.00in /  0mm 891 W/m2
14:39 72.9 °F /  22.7 °C 61.1 °F /  16.2 °C 29.94in /  1013.8hPa South 1.7mph /  2.7km/h 6mph /  9.7km/h 66.5% 0.00in /  0mm 603 W/m2
14:44 73 °F /  22.8 °C 61.4 °F /  16.3 °C 29.94in /  1013.8hPa South 1.3mph /  2.1km/h 6mph /  9.7km/h 66.8% 0.00in /  0mm 468 W/m2
14:49 73 °F /  22.8 °C 61.9 °F /  16.6 °C 29.94in /  1013.8hPa South 0.6mph /  1km/h 6mph /  9.7km/h 68.2% 0.00in /  0mm 309 W/m2
14:54 72.9 °F /  22.7 °C 62.2 °F /  16.8 °C 29.94in /  1013.8hPa South 1.2mph /  1.9km/h 7mph /  11.3km/h 69.3% 0.00in /  0mm 766 W/m2
14:59 73 °F /  22.8 °C 62.7 °F /  17.1 °C 29.94in /  1013.8hPa South 1mph /  1.6km/h 7mph /  11.3km/h 70% 0.00in /  0mm 796 W/m2
15:04 73.2 °F /  22.9 °C 62.7 °F /  17.1 °C 29.94in /  1013.8hPa South 0.9mph /  1.4km/h 7mph /  11.3km/h 69.9% 0.00in /  0mm 575 W/m2
15:09 73.2 °F /  22.9 °C 63.2 °F /  17.3 °C 29.94in /  1013.8hPa South 0.4mph /  0.6km/h 6mph /  9.7km/h 70.8% 0.00in /  0mm 990 W/m2
15:14 73.7 °F /  23.2 °C 63.7 °F /  17.6 °C 29.94in /  1013.8hPa South 0.6mph /  1km/h 6mph /  9.7km/h 70.8% 0.00in /  0mm 844 W/m2
15:19 74 °F /  23.3 °C 63.2 °F /  17.3 °C 29.93in /  1013.4hPa South 0.1mph /  0.2km/h 6mph /  9.7km/h 69.2% 0.00in /  0mm 793 W/m2
15:24 74 °F /  23.3 °C 63.5 °F /  17.5 °C 29.93in /  1013.4hPa South 0.2mph /  0.3km/h 6mph /  9.7km/h 69.6% 0.00in /  0mm 773 W/m2
15:29 74.2 °F /  23.4 °C 63.7 °F /  17.6 °C 29.93in /  1013.4hPa South 0.1mph /  0.2km/h 6mph /  9.7km/h 69.8% 0.00in /  0mm 770 W/m2
15:34 74.2 °F /  23.4 °C 63.6 °F /  17.6 °C 29.93in /  1013.4hPa South 0.3mph /  0.5km/h 6mph /  9.7km/h 69.6% 0.00in /  0mm 770 W/m2
15:39 73.9 °F /  23.3 °C 63.2 °F /  17.3 °C 29.93in /  1013.4hPa SE 0.7mph /  1.1km/h 10mph /  16.1km/h 69.2% 0.00in /  0mm 380 W/m2
15:44 73.5 °F /  23.1 °C 63 °F /  17.2 °C 29.93in /  1013.4hPa SE 0.8mph /  1.3km/h 10mph /  16.1km/h 69.7% 0.00in /  0mm 345 W/m2
15:49 73.1 °F /  22.8 °C 63.2 °F /  17.3 °C 29.93in /  1013.4hPa NE 0.2mph /  0.3km/h 10mph /  16.1km/h 71.2% 0.00in /  0mm 912 W/m2
15:54 73 °F /  22.8 °C 63.4 °F /  17.4 °C 29.92in /  1013.1hPa SE 0.6mph /  1km/h 10mph /  16.1km/h 71.7% 0.00in /  0mm 912 W/m2
15:59 73.3 °F /  22.9 °C 63.5 °F /  17.5 °C 29.92in /  1013.1hPa SE 0.1mph /  0.2km/h 10mph /  16.1km/h 71.4% 0.00in /  0mm 789 W/m2
16:04 73.7 °F /  23.2 °C 64.1 °F /  17.8 °C 29.92in /  1013.1hPa Calm     72% 0.00in /  0mm 682 W/m2
16:09 73.7 °F /  23.2 °C 63.6 °F /  17.6 °C 29.92in /  1013.1hPa SE 0.1mph /  0.2km/h 2mph /  3.2km/h 70.7% 0.00in /  0mm 682 W/m2
16:14 73.6 °F /  23.1 °C 63.1 °F /  17.3 °C 29.92in /  1013.1hPa SSE 0.6mph /  1km/h 7mph /  11.3km/h 69.6% 0.00in /  0mm 100 W/m2
16:19 73.3 °F /  22.9 °C 62.9 °F /  17.2 °C 29.92in /  1013.1hPa East 0.3mph /  0.5km/h 7mph /  11.3km/h 70% 0.00in /  0mm 98 W/m2
16:24 73 °F /  22.8 °C 62.7 °F /  17.1 °C 29.93in /  1013.4hPa ESE 0.4mph /  0.6km/h 7mph /  11.3km/h 70.2% 0.00in /  0mm 100 W/m2
16:29 72.6 °F /  22.6 °C 62.6 °F /  17 °C 29.93in /  1013.4hPa ESE 0.6mph /  1km/h 7mph /  11.3km/h 70.6% 0.00in /  0mm 100 W/m2
16:34 72.4 °F /  22.4 °C 62.6 °F /  17 °C 29.93in /  1013.4hPa ESE 0.8mph /  1.3km/h 7mph /  11.3km/h 71.2% 0.00in /  0mm 93 W/m2
16:39 72.3 °F /  22.4 °C 62.7 °F /  17.1 °C 29.93in /  1013.4hPa Calm   3mph /  4.8km/h 71.9% 0.00in /  0mm 93 W/m2
16:44 72.2 °F /  22.3 °C 62.9 °F /  17.2 °C 29.93in /  1013.4hPa SE 0.1mph /  0.2km/h 3mph /  4.8km/h 72.5% 0.00in /  0mm 88 W/m2
16:49 72.1 °F /  22.3 °C 62.6 °F /  17 °C 29.93in /  1013.4hPa SE 0.2mph /  0.3km/h 4mph /  6.4km/h 72% 0.00in /  0mm 121 W/m2
16:54 72 °F /  22.2 °C 62.6 °F /  17 °C 29.93in /  1013.4hPa ESE 0.2mph /  0.3km/h 5mph /  8km/h 72.2% 0.00in /  0mm 127 W/m2
16:59 72 °F /  22.2 °C 62.5 °F /  16.9 °C 29.93in /  1013.4hPa SE 0.6mph /  1km/h 5mph /  8km/h 72% 0.00in /  0mm 125 W/m2
17:04 71.8 °F /  22.1 °C 62.4 °F /  16.9 °C 29.93in /  1013.4hPa South 0.4mph /  0.6km/h 5mph /  8km/h 72.1% 0.00in /  0mm 98 W/m2
17:09 71.6 °F /  22 °C 62.5 °F /  16.9 °C 29.93in /  1013.4hPa SW 0.1mph /  0.2km/h 4mph /  6.4km/h 73% 0.00in /  0mm 135 W/m2
17:14 71.5 °F /  21.9 °C 62.4 °F /  16.9 °C 29.93in /  1013.4hPa ESE 1.2mph /  1.9km/h 6mph /  9.7km/h 73.2% 0.00in /  0mm 151 W/m2
17:19 71.4 °F /  21.9 °C 62.4 °F /  16.9 °C 29.94in /  1013.8hPa Calm   6mph /  9.7km/h 73.3% 0.00in /  0mm 156 W/m2
17:24 71.5 °F /  21.9 °C 62.8 °F /  17.1 °C 29.94in /  1013.8hPa Calm   6mph /  9.7km/h 74.1% 0.00in /  0mm 156 W/m2
17:29 71.5 °F /  21.9 °C 62.8 °F /  17.1 °C 29.94in /  1013.8hPa ESE 0.2mph /  0.3km/h 6mph /  9.7km/h 74% 0.00in /  0mm 121 W/m2
17:34 71.3 °F /  21.8 °C 62.6 °F /  17 °C 29.94in /  1013.8hPa ESE 0.5mph /  0.8km/h 6mph /  9.7km/h 74% 0.00in /  0mm 102 W/m2
17:39 71 °F /  21.7 °C 62.5 °F /  16.9 °C 29.94in /  1013.8hPa Calm   5mph /  8km/h 74.6% 0.00in /  0mm 104 W/m2
17:44 70.7 °F /  21.5 °C 62.4 °F /  16.9 °C 29.94in /  1013.8hPa SE 0.1mph /  0.2km/h 5mph /  8km/h 75% 0.00in /  0mm 104 W/m2
17:49 70.5 °F /  21.4 °C 62.6 °F /  17 °C 29.94in /  1013.8hPa SSW 0.1mph /  0.2km/h 5mph /  8km/h 75.9% 0.00in /  0mm 95 W/m2
17:54 70.4 °F /  21.3 °C 62.7 °F /  17.1 °C 29.94in /  1013.8hPa Calm   5mph /  8km/h 76.5% 0.00in /  0mm 109 W/m2
17:59 70.3 °F /  21.3 °C 62.8 °F /  17.1 °C 29.94in /  1013.8hPa SE 0.2mph /  0.3km/h 5mph /  8km/h 77% 0.00in /  0mm 116 W/m2
18:04 70.2 °F /  21.2 °C 62.7 °F /  17.1 °C 29.94in /  1013.8hPa SE 0.1mph /  0.2km/h 5mph /  8km/h 77.2% 0.00in /  0mm 125 W/m2
18:09 70.1 °F /  21.2 °C 62.9 °F /  17.2 °C 29.94in /  1013.8hPa Calm   3mph /  4.8km/h 78% 0.00in /  0mm 132 W/m2
18:14 70.1 °F /  21.2 °C 62.9 °F /  17.2 °C 29.94in /  1013.8hPa SE 0.2mph /  0.3km/h 3mph /  4.8km/h 78% 0.00in /  0mm 134 W/m2
18:19 69.9 °F /  21.1 °C 62.7 °F /  17.1 °C 29.93in /  1013.4hPa ESE 0.3mph /  0.5km/h 5mph /  8km/h 78% 0.00in /  0mm 118 W/m2
18:24 69.7 °F /  20.9 °C 62.6 °F /  17 °C 29.93in /  1013.4hPa Calm   5mph /  8km/h 78.3% 0.00in /  0mm 90 W/m2
18:29 69.4 °F /  20.8 °C 62.6 °F /  17 °C 29.93in /  1013.4hPa SE 0.2mph /  0.3km/h 5mph /  8km/h 79% 0.00in /  0mm 62 W/m2
18:34 69.2 °F /  20.7 °C 62.6 °F /  17 °C 29.93in /  1013.4hPa Calm   5mph /  8km/h 79.5% 0.00in /  0mm 58 W/m2
18:39 69.1 °F /  20.6 °C 62.7 °F /  17.1 °C 29.93in /  1013.4hPa Calm     80% 0.00in /  0mm 56 W/m2
18:44 68.9 °F /  20.5 °C 62.5 °F /  16.9 °C 29.93in /  1013.4hPa Calm   1mph /  1.6km/h 80% 0.00in /  0mm 37 W/m2
18:49 68.8 °F /  20.4 °C 62.4 °F /  16.9 °C 29.94in /  1013.8hPa Calm   1mph /  1.6km/h 80.1% 0.00in /  0mm 33 W/m2
18:54 68.6 °F /  20.3 °C 62.5 °F /  16.9 °C 29.94in /  1013.8hPa Calm   1mph /  1.6km/h 81% 0.00in /  0mm 21 W/m2
18:59 68.4 °F /  20.2 °C 62.4 °F /  16.9 °C 29.94in /  1013.8hPa Calm   1mph /  1.6km/h 81% 0.00in /  0mm 21 W/m2
19:04 68.2 °F /  20.1 °C 62.3 °F /  16.8 °C 29.94in /  1013.8hPa Calm   1mph /  1.6km/h 81.2% 0.00in /  0mm 19 W/m2
19:09 68.1 °F /  20.1 °C 62.4 °F /  16.9 °C 29.95in /  1014.1hPa Calm   1mph /  1.6km/h 81.8% 0.00in /  0mm 16 W/m2
19:14 68.1 °F /  20.1 °C 62.4 °F /  16.9 °C 29.95in /  1014.1hPa SE 0.1mph /  0.2km/h 4mph /  6.4km/h 82% 0.00in /  0mm 23 W/m2
19:19 68 °F /  20 °C 62.3 °F /  16.8 °C 29.94in /  1013.8hPa Calm   4mph /  6.4km/h 82% 0.00in /  0mm 23 W/m2
19:24 68 °F /  20 °C 62.3 °F /  16.8 °C 29.94in /  1013.8hPa SE 0.2mph /  0.3km/h 4mph /  6.4km/h 82% 0.00in /  0mm 23 W/m2
19:29 68 °F /  20 °C 62.3 °F /  16.8 °C 29.94in /  1013.8hPa Calm   4mph /  6.4km/h 82% 0.00in /  0mm 19 W/m2
19:34 67.9 °F /  19.9 °C 62.2 °F /  16.8 °C 29.94in /  1013.8hPa ESE 0.4mph /  0.6km/h 11mph /  17.7km/h 82% 0.00in /  0mm 19 W/m2
19:39 67.8 °F /  19.9 °C 62.1 °F /  16.7 °C 29.93in /  1013.4hPa SSE 0.1mph /  0.2km/h 11mph /  17.7km/h 82% 0.00in /  0mm 18 W/m2
19:44 67.6 °F /  19.8 °C 62.2 °F /  16.8 °C 29.93in /  1013.4hPa Calm   11mph /  17.7km/h 82.7% 0.00in /  0mm 16 W/m2
19:49 67.5 °F /  19.7 °C 62.2 °F /  16.8 °C 29.93in /  1013.4hPa Calm   11mph /  17.7km/h 83% 0.00in /  0mm 11 W/m2
19:54 67.4 °F /  19.7 °C 62.1 °F /  16.7 °C 29.93in /  1013.4hPa Calm   11mph /  17.7km/h 83% 0.00in /  0mm 7 W/m2
19:59 67.3 °F /  19.6 °C 62 °F /  16.7 °C 29.93in /  1013.4hPa Calm   11mph /  17.7km/h 83% 0.00in /  0mm 0 W/m2
20:00 67.2 °F /  19.6 °C 61.9 °F /  16.6 °C 29.93in /  1013.4hPa Calm   11mph /  17.7km/h 83% 0.00in /  0mm 0 W/m2
20:09 66.9 °F /  19.4 °C 61.7 °F /  16.5 °C 29.93in /  1013.4hPa Calm     83.3% 0.00in /  0mm 0 W/m2
20:13 66.8 °F /  19.3 °C 61.8 °F /  16.6 °C 29.93in /  1013.4hPa Calm     84% 0.00in /  0mm 0 W/m2
20:19 66.7 °F /  19.3 °C 61.7 °F /  16.5 °C 29.93in /  1013.4hPa Calm     84% 0.00in /  0mm 0 W/m2
20:24 66.5 °F /  19.2 °C 61.5 °F /  16.4 °C 29.94in /  1013.8hPa Calm     84% 0.00in /  0mm 0 W/m2
20:29 66.3 °F /  19.1 °C 61.4 °F /  16.3 °C 29.95in /  1014.1hPa Calm     84.2% 0.00in /  0mm 0 W/m2
20:34 66.2 °F /  19 °C 61.5 °F /  16.4 °C 29.95in /  1014.1hPa ESE 0.1mph /  0.2km/h 2mph /  3.2km/h 85% 0.00in /  0mm 0 W/m2
20:39 66 °F /  18.9 °C 61.3 °F /  16.3 °C 29.94in /  1013.8hPa Calm   2mph /  3.2km/h 85% 0.00in /  0mm 0 W/m2
20:44 65.8 °F /  18.8 °C 61.2 °F /  16.2 °C 29.94in /  1013.8hPa Calm   2mph /  3.2km/h 85.2% 0.00in /  0mm 0 W/m2
20:49 65.6 °F /  18.7 °C 61.4 °F /  16.3 °C 29.94in /  1013.8hPa Calm   2mph /  3.2km/h 86% 0.00in /  0mm 0 W/m2
20:54 65.5 °F /  18.6 °C 61.3 °F /  16.3 °C 29.94in /  1013.8hPa Calm   2mph /  3.2km/h 86.3% 0.00in /  0mm 0 W/m2
20:59 65.3 °F /  18.5 °C 61.3 °F /  16.3 °C 29.94in /  1013.8hPa Calm   2mph /  3.2km/h 87% 0.00in /  0mm 0 W/m2
21:04 65.2 °F /  18.4 °C 61.5 °F /  16.4 °C 29.94in /  1013.8hPa Calm   2mph /  3.2km/h 87.9% 0.00in /  0mm 0 W/m2
21:09 65 °F /  18.3 °C 61.3 °F /  16.3 °C 29.95in /  1014.1hPa Calm     88% 0.00in /  0mm 0 W/m2
21:14 64.9 °F /  18.3 °C 61.3 °F /  16.3 °C 29.96in /  1014.4hPa Calm     88.2% 0.00in /  0mm 0 W/m2
21:19 64.8 °F /  18.2 °C 61.5 °F /  16.4 °C 29.96in /  1014.4hPa Calm     89% 0.00in /  0mm 0 W/m2
21:24 64.7 °F /  18.2 °C 61.4 °F /  16.3 °C 29.96in /  1014.4hPa Calm     89% 0.01in /  0.25mm 0 W/m2
21:29 64.6 °F /  18.1 °C 61.6 °F /  16.4 °C 29.95in /  1014.1hPa Calm     90% 0.01in /  0.25mm 0 W/m2
21:34 64.4 °F /  18 °C 61.4 °F /  16.3 °C 29.95in /  1014.1hPa Calm     90% 0.01in /  0.25mm 0 W/m2
21:39 64.3 °F /  17.9 °C 61.3 °F /  16.3 °C 29.96in /  1014.4hPa Calm     90% 0.02in /  0.51mm 0 W/m2
21:44 64.2 °F /  17.9 °C 61.6 °F /  16.4 °C 29.96in /  1014.4hPa Calm     91% 0.02in /  0.51mm 0 W/m2
21:49 64.1 °F /  17.8 °C 61.4 °F /  16.3 °C 29.95in /  1014.1hPa Calm     91% 0.02in /  0.51mm 0 W/m2
21:54 64.1 °F /  17.8 °C 61.4 °F /  16.3 °C 29.96in /  1014.4hPa Calm     91% 0.02in /  0.51mm 0 W/m2
21:59 64 °F /  17.8 °C 61.4 °F /  16.3 °C 29.96in /  1014.4hPa Calm     91.4% 0.02in /  0.51mm 0 W/m2
22:04 64 °F /  17.8 °C 61.7 °F /  16.5 °C 29.96in /  1014.4hPa Calm     92% 0.02in /  0.51mm 0 W/m2
22:09 64 °F /  17.8 °C 61.6 °F /  16.4 °C 29.96in /  1014.4hPa Calm     92% 0.02in /  0.51mm 0 W/m2
22:13 63.9 °F /  17.7 °C 61.5 °F /  16.4 °C 29.96in /  1014.4hPa Calm     92% 0.02in /  0.51mm 0 W/m2
22:19 63.8 °F /  17.7 °C 61.5 °F /  16.4 °C 29.96in /  1014.4hPa Calm     92% 0.03in /  0.76mm 0 W/m2
22:24 63.8 °F /  17.7 °C 61.4 °F /  16.3 °C 29.95in /  1014.1hPa Calm     92% 0.04in /  1.02mm 0 W/m2
22:29 63.7 °F /  17.6 °C 61.3 °F /  16.3 °C 29.95in /  1014.1hPa Calm     92% 0.04in /  1.02mm 0 W/m2
22:34 63.6 °F /  17.6 °C 61.2 °F /  16.2 °C 29.95in /  1014.1hPa Calm     92% 0.04in /  1.02mm 0 W/m2
22:39 63.6 °F /  17.6 °C 61.5 °F /  16.4 °C 29.95in /  1014.1hPa Calm     93% 0.03in /  0.76mm 0 W/m2
22:44 63.5 °F /  17.5 °C 61.4 °F /  16.3 °C 29.94in /  1013.8hPa Calm     93% 0.03in /  0.76mm 0 W/m2
22:49 63.5 °F /  17.5 °C 61.4 °F /  16.3 °C 29.95in /  1014.1hPa Calm     93% 0.03in /  0.76mm 0 W/m2
22:54 63.5 °F /  17.5 °C 61.4 °F /  16.3 °C 29.95in /  1014.1hPa Calm     93% 0.03in /  0.76mm 0 W/m2
22:59 63.5 °F /  17.5 °C 61.4 °F /  16.3 °C 29.95in /  1014.1hPa Calm     93% 0.03in /  0.76mm 0 W/m2
23:04 63.5 °F /  17.5 °C 61.4 °F /  16.3 °C 29.95in /  1014.1hPa Calm     93% 0.03in /  0.76mm 0 W/m2
23:09 63.4 °F /  17.4 °C 61.4 °F /  16.3 °C 29.95in /  1014.1hPa Calm     93% 0.02in /  0.51mm 0 W/m2
23:14 63.4 °F /  17.4 °C 61.3 °F /  16.3 °C 29.95in /  1014.1hPa Calm     93% 0.02in /  0.51mm 0 W/m2
23:19 63.3 °F /  17.4 °C 61.3 °F /  16.3 °C 29.95in /  1014.1hPa Calm     93% 0.02in /  0.51mm 0 W/m2
23:24 63.2 °F /  17.3 °C 61.2 °F /  16.2 °C 29.95in /  1014.1hPa Calm     93% 0.02in /  0.51mm 0 W/m2
23:29 63.2 °F /  17.3 °C 61.2 °F /  16.2 °C 29.95in /  1014.1hPa Calm     93% 0.02in /  0.51mm 0 W/m2
23:34 63.2 °F /  17.3 °C 61.2 °F /  16.2 °C 29.95in /  1014.1hPa Calm     93% 0.02in /  0.51mm 0 W/m2
23:39 63.2 °F /  17.3 °C 61.5 °F /  16.4 °C 29.95in /  1014.1hPa Calm     94% 0.00in /  0mm 0 W/m2
23:44 63.2 °F /  17.3 °C 61.4 °F /  16.3 °C 29.95in /  1014.1hPa Calm     94% 0.00in /  0mm 0 W/m2
23:49 63.1 °F /  17.3 °C 61.4 °F /  16.3 °C 29.95in /  1014.1hPa Calm     94% 0.00in /  0mm 0 W/m2
23:54 63.1 °F /  17.3 °C 61.3 °F /  16.3 °C 29.95in /  1014.1hPa SE 0.1mph /  0.2km/h 3mph /  4.8km/h 94% 0.00in /  0mm 0 W/m2
23:59 63.1 °F /  17.3 °C 61.3 °F /  16.3 °C 29.95in /  1014.1hPa Calm   3mph /  4.8km/h 94% 0.00in /  0mm 0 W/m2
Hartford County Weather
Compliments of Weather Underground - 2 mb